createdAt,value
2022-10-07T00:00:56.222Z,5.53
2022-10-07T00:03:24.567Z,5.10
2022-10-07T00:06:07.047Z,5.28
2022-10-07T00:08:38.188Z,4.72
2022-10-07T00:11:10.137Z,4.80
2022-10-07T00:13:38.896Z,5.35
2022-10-07T00:16:08.133Z,5.00
2022-10-07T00:18:36.176Z,5.45
2022-10-07T00:21:07.992Z,4.85
2022-10-07T00:23:35.626Z,5.03
2022-10-07T00:26:04.247Z,5.28
2022-10-07T00:28:31.961Z,5.30
2022-10-07T00:31:00.553Z,5.45
2022-10-07T00:33:30.667Z,5.20
2022-10-07T00:35:58.055Z,5.80
2022-10-07T00:38:25.370Z,4.93
2022-10-07T00:40:52.775Z,5.40
2022-10-07T00:43:29.577Z,6.00
2022-10-07T00:46:27.108Z,5.60
2022-10-07T00:48:54.669Z,5.47
2022-10-07T00:51:21.999Z,5.57
2022-10-07T00:53:49.944Z,5.80
2022-10-07T00:56:17.948Z,5.70
2022-10-07T00:58:46.236Z,5.47
2022-10-07T01:01:13.622Z,5.85
2022-10-07T01:03:42.274Z,6.00
2022-10-07T01:06:10.437Z,6.50
2022-10-07T01:08:40.401Z,6.05
2022-10-07T01:11:16.458Z,5.50
2022-10-07T01:14:20.694Z,6.30
2022-10-07T01:17:06.269Z,5.70
2022-10-07T01:19:59.779Z,5.95
2022-10-07T01:22:57.919Z,5.95
2022-10-07T01:25:32.185Z,6.30
2022-10-07T01:28:07.465Z,6.13
2022-10-07T01:30:36.419Z,6.13
2022-10-07T01:33:05.123Z,6.35
2022-10-07T01:35:35.171Z,6.25
2022-10-07T01:38:06.476Z,6.25
2022-10-07T01:40:41.475Z,6.33
2022-10-07T01:43:09.283Z,6.85
2022-10-07T01:45:39.367Z,6.07
2022-10-07T01:48:06.704Z,7.03
2022-10-07T01:50:34.679Z,6.70
2022-10-07T01:53:12.566Z,5.90
2022-10-07T01:56:01.179Z,6.68
2022-10-07T01:58:41.715Z,7.30
2022-10-07T02:01:22.817Z,6.55
2022-10-07T02:04:06.239Z,7.03
2022-10-07T02:06:46.892Z,7.28
2022-10-07T02:09:58.353Z,7.05
2022-10-07T02:12:43.384Z,6.50
2022-10-07T02:15:17.042Z,6.97
2022-10-07T02:17:54.145Z,7.13
2022-10-07T02:20:23.913Z,6.38
2022-10-07T02:22:52.204Z,6.45
2022-10-07T02:25:19.990Z,6.35
2022-10-07T02:27:48.016Z,7.10
2022-10-07T02:30:16.480Z,6.57
2022-10-07T02:32:53.960Z,7.03
2022-10-07T02:35:34.749Z,6.40
2022-10-07T02:38:05.095Z,6.93
2022-10-07T02:40:36.469Z,7.68
2022-10-07T02:43:08.374Z,7.28
2022-10-07T02:45:47.640Z,7.03
2022-10-07T02:48:21.362Z,6.75
2022-10-07T02:50:52.996Z,6.95
2022-10-07T02:53:20.724Z,7.60
2022-10-07T02:55:48.970Z,6.82
2022-10-07T02:58:16.543Z,6.90
2022-10-07T03:00:46.766Z,8.02
2022-10-07T03:03:15.330Z,7.50
2022-10-07T03:05:49.381Z,7.28
2022-10-07T03:08:17.275Z,6.95
2022-10-07T03:10:46.096Z,7.07
2022-10-07T03:13:15.705Z,7.75
2022-10-07T03:15:48.621Z,7.65
2022-10-07T03:18:29.531Z,7.40
2022-10-07T03:21:22.790Z,7.60
2022-10-07T03:23:52.980Z,8.07
2022-10-07T03:26:22.622Z,7.55
2022-10-07T03:28:50.683Z,7.50
2022-10-07T03:31:19.724Z,8.98
2022-10-07T03:33:50.197Z,7.93
2022-10-07T03:36:19.312Z,7.90
2022-10-07T03:38:48.013Z,8.43
2022-10-07T03:41:16.390Z,8.15
2022-10-07T03:43:44.488Z,8.25
2022-10-07T03:46:14.160Z,8.57
2022-10-07T03:48:42.028Z,9.13
2022-10-07T03:51:09.531Z,8.75
2022-10-07T03:53:38.883Z,8.95
2022-10-07T03:56:06.955Z,8.98
2022-10-07T03:58:35.700Z,9.98
2022-10-07T04:01:09.483Z,10.05
2022-10-07T04:03:38.927Z,9.52
2022-10-07T04:06:06.656Z,9.57
2022-10-07T04:08:35.283Z,9.18
2022-10-07T04:11:03.859Z,8.93
2022-10-07T04:13:32.574Z,8.77
2022-10-07T04:16:06.395Z,9.18
2022-10-07T04:18:34.027Z,9.90
2022-10-07T04:21:01.575Z,9.75
2022-10-07T04:23:30.928Z,10.02
2022-10-07T04:25:58.226Z,10.50
2022-10-07T04:28:28.861Z,9.55
2022-10-07T04:31:06.790Z,9.98
2022-10-07T04:33:40.439Z,10.30
2022-10-07T04:36:09.266Z,10.98
2022-10-07T04:38:45.262Z,10.68
2022-10-07T04:41:13.037Z,10.48
2022-10-07T04:43:40.851Z,10.27
2022-10-07T04:46:14.338Z,10.95
2022-10-07T04:48:47.598Z,9.60
2022-10-07T04:51:18.594Z,10.18
2022-10-07T04:53:56.796Z,9.73
2022-10-07T04:56:31.358Z,10.23
2022-10-07T04:58:59.585Z,9.75
2022-10-07T05:01:27.385Z,9.68
2022-10-07T05:03:55.183Z,9.85
2022-10-07T05:06:22.838Z,9.95
2022-10-07T05:08:52.178Z,9.88
2022-10-07T05:11:19.488Z,9.77
2022-10-07T05:13:52.666Z,12.00
2022-10-07T05:16:21.620Z,13.02
2022-10-07T05:18:49.068Z,11.18
2022-10-07T05:21:17.067Z,11.05
2022-10-07T05:23:46.812Z,8.90
2022-10-07T05:26:18.811Z,10.02
2022-10-07T05:28:51.316Z,10.85
2022-10-07T05:31:26.267Z,14.13
2022-10-07T05:33:57.000Z,14.70
2022-10-07T05:36:26.282Z,13.45
2022-10-07T05:38:59.664Z,14.13
2022-10-07T05:41:44.942Z,14.43
2022-10-07T05:44:14.016Z,15.52
2022-10-07T05:46:42.125Z,17.35
2022-10-07T05:49:09.898Z,17.08
2022-10-07T05:51:37.479Z,16.58
2022-10-07T05:54:06.203Z,18.10
2022-10-07T05:56:38.358Z,18.48
2022-10-07T05:59:06.208Z,19.65
2022-10-07T06:01:33.770Z,20.90
2022-10-07T06:04:08.130Z,20.10
2022-10-07T06:06:38.756Z,19.30
2022-10-07T06:09:28.853Z,19.90
2022-10-07T06:12:15.620Z,20.65
2022-10-07T06:14:43.377Z,20.10
2022-10-07T06:17:10.946Z,19.50
2022-10-07T06:19:39.835Z,23.30
2022-10-07T06:22:07.602Z,21.15
2022-10-07T06:24:37.118Z,20.48
2022-10-07T06:27:04.560Z,19.55
2022-10-07T06:29:32.647Z,20.40
2022-10-07T06:32:00.515Z,19.48
2022-10-07T06:34:27.987Z,18.83
2022-10-07T06:36:56.047Z,17.10
2022-10-07T06:39:23.976Z,17.10
2022-10-07T06:41:54.493Z,17.27
2022-10-07T06:44:53.792Z,16.48
2022-10-07T06:47:23.520Z,16.40
2022-10-07T06:49:51.599Z,14.73
2022-10-07T06:52:19.142Z,16.05
2022-10-07T06:54:47.462Z,15.25
2022-10-07T06:57:43.912Z,14.55
2022-10-07T07:00:02.502Z,15.25
2022-10-07T07:02:33.041Z,15.93
2022-10-07T07:05:04.523Z,14.57
2022-10-07T07:07:32.012Z,15.00
2022-10-07T07:10:00.296Z,14.85
2022-10-07T07:12:28.492Z,15.65
2022-10-07T07:14:56.387Z,15.10
2022-10-07T07:17:23.790Z,16.17
2022-10-07T07:19:51.428Z,17.73
2022-10-07T07:22:19.556Z,18.15
2022-10-07T07:24:48.879Z,20.98
2022-10-07T07:27:16.570Z,19.05
2022-10-07T07:29:44.745Z,20.80
2022-10-07T07:32:13.271Z,19.63
2022-10-07T07:34:43.420Z,20.40
2022-10-07T07:37:15.204Z,18.02
2022-10-07T07:39:47.600Z,19.50
2022-10-07T07:42:18.359Z,19.65
2022-10-07T07:44:46.117Z,19.50
2022-10-07T07:47:17.105Z,19.00
2022-10-07T07:49:45.805Z,20.42
2022-10-07T07:52:18.507Z,18.50
2022-10-07T07:54:48.795Z,18.88
2022-10-07T07:57:16.288Z,21.50
2022-10-07T07:59:43.763Z,20.90
2022-10-07T08:02:13.293Z,20.58
2022-10-07T08:04:44.190Z,20.55
2022-10-07T08:07:12.867Z,19.48
2022-10-07T08:09:41.446Z,19.42
2022-10-07T08:12:09.418Z,20.45
2022-10-07T08:14:37.870Z,20.20
2022-10-07T08:17:06.178Z,20.27
2022-10-07T08:19:34.002Z,21.02
2022-10-07T08:22:01.564Z,55.78
2022-10-07T08:24:31.187Z,23.17
2022-10-07T08:26:59.155Z,21.98
2022-10-07T08:29:26.780Z,19.30
2022-10-07T08:31:54.147Z,20.23
2022-10-07T08:34:21.483Z,19.52
2022-10-07T08:36:50.569Z,19.13
2022-10-07T08:39:17.872Z,19.48
2022-10-07T08:41:50.441Z,19.35
2022-10-07T08:44:21.334Z,19.00
2022-10-07T08:46:56.569Z,19.10
2022-10-07T08:49:39.439Z,19.20
2022-10-07T08:52:29.521Z,18.25
2022-10-07T08:54:56.839Z,17.35
2022-10-07T08:57:54.877Z,19.13
2022-10-07T09:00:22.394Z,17.83
2022-10-07T09:03:07.381Z,18.10
2022-10-07T09:05:39.074Z,18.25
2022-10-07T09:08:21.161Z,17.35
2022-10-07T09:10:53.401Z,19.40
2022-10-07T09:13:25.470Z,18.27
2022-10-07T09:16:33.138Z,17.92
2022-10-07T09:19:01.494Z,19.08
2022-10-07T09:21:41.481Z,19.52
2022-10-07T09:24:28.952Z,19.35
2022-10-07T09:27:01.071Z,19.05
2022-10-07T09:29:29.439Z,18.63
2022-10-07T09:31:58.034Z,19.67
2022-10-07T09:34:29.815Z,19.35
2022-10-07T09:37:17.529Z,18.83
2022-10-07T09:39:45.230Z,20.10
2022-10-07T09:42:29.816Z,18.92
2022-10-07T09:44:58.979Z,19.73
2022-10-07T09:47:27.592Z,19.13
2022-10-07T09:49:56.982Z,20.20
2022-10-07T09:52:28.029Z,20.67
2022-10-07T09:54:57.177Z,21.15
2022-10-07T09:57:33.884Z,17.85
2022-10-07T10:00:27.862Z,20.98
2022-10-07T10:03:06.509Z,20.80
2022-10-07T10:05:35.750Z,20.77
2022-10-07T10:08:18.447Z,20.20
2022-10-07T10:10:59.304Z,18.38
2022-10-07T10:13:38.401Z,19.75
2022-10-07T10:16:07.241Z,20.20
2022-10-07T10:18:39.372Z,20.33
2022-10-07T10:21:30.134Z,19.92
2022-10-07T10:23:59.405Z,20.85
2022-10-07T10:26:41.970Z,20.58
2022-10-07T10:29:20.484Z,20.27
2022-10-07T10:32:02.913Z,22.13
2022-10-07T10:35:00.798Z,19.85
2022-10-07T10:37:34.372Z,19.05
2022-10-07T10:40:39.388Z,20.95
2022-10-07T10:43:55.937Z,17.92
2022-10-07T10:46:52.076Z,19.10
2022-10-07T10:49:33.868Z,18.92
2022-10-07T10:52:34.182Z,18.85
2022-10-07T10:55:15.417Z,20.10
2022-10-07T10:58:05.998Z,17.50
2022-10-07T11:01:03.197Z,20.27
2022-10-07T11:03:47.160Z,18.30
2022-10-07T11:06:16.522Z,13.05
2022-10-07T11:08:44.120Z,13.75
2022-10-07T11:11:14.877Z,11.95
2022-10-07T11:13:47.415Z,12.60
2022-10-07T11:16:23.759Z,18.90
2022-10-07T11:18:58.743Z,12.77
2022-10-07T11:21:30.107Z,16.30
2022-10-07T11:24:13.680Z,17.63
2022-10-07T11:26:46.063Z,14.68
2022-10-07T11:29:48.322Z,14.07
2022-10-07T11:32:24.718Z,17.23
2022-10-07T11:35:12.444Z,17.15
2022-10-07T11:37:49.482Z,14.98
2022-10-07T11:40:16.948Z,15.32
2022-10-07T11:42:45.969Z,13.85
2022-10-07T11:45:18.492Z,14.13
2022-10-07T11:47:50.866Z,17.60
2022-10-07T11:50:24.325Z,16.98
2022-10-07T11:52:53.306Z,18.00
2022-10-07T11:55:29.338Z,17.48
2022-10-07T11:57:57.632Z,17.55
2022-10-07T12:00:32.428Z,18.33
2022-10-07T12:03:18.220Z,17.65
2022-10-07T12:05:53.352Z,17.35
2022-10-07T12:08:24.029Z,16.20
2022-10-07T12:10:55.504Z,15.63
2022-10-07T12:13:22.768Z,17.77
2022-10-07T12:15:50.623Z,16.98
2022-10-07T12:18:26.221Z,16.90
2022-10-07T12:20:53.610Z,17.10
2022-10-07T12:23:22.118Z,16.98
2022-10-07T12:26:00.563Z,16.38
2022-10-07T12:28:28.629Z,14.68
2022-10-07T12:30:57.319Z,15.70
2022-10-07T12:33:46.518Z,14.48
2022-10-07T12:36:23.865Z,14.48
2022-10-07T12:39:00.840Z,13.93
2022-10-07T12:41:39.662Z,14.07
2022-10-07T12:44:19.729Z,14.50
2022-10-07T12:47:00.983Z,13.77
2022-10-07T12:49:59.050Z,13.45
2022-10-07T12:52:42.379Z,12.43
2022-10-07T12:55:44.231Z,13.50
2022-10-07T12:58:42.193Z,11.43
2022-10-07T13:01:32.336Z,12.27
2022-10-07T13:04:06.156Z,13.43
2022-10-07T13:07:08.003Z,13.60
2022-10-07T13:09:47.309Z,13.30
2022-10-07T13:12:43.797Z,14.68
2022-10-07T13:15:26.353Z,13.52
2022-10-07T13:18:03.113Z,14.40
2022-10-07T13:21:08.212Z,16.60
2022-10-07T13:23:35.527Z,15.48
2022-10-07T13:26:03.522Z,17.20
2022-10-07T13:28:50.709Z,17.88
2022-10-07T13:31:19.801Z,18.45
2022-10-07T13:33:47.468Z,17.38
2022-10-07T13:36:25.593Z,17.33
2022-10-07T13:38:54.363Z,16.23
2022-10-07T13:41:29.280Z,16.67
2022-10-07T13:44:03.078Z,15.45
2022-10-07T13:46:31.639Z,14.73
2022-10-07T13:48:59.017Z,13.75
2022-10-07T13:51:36.314Z,14.77
2022-10-07T13:54:04.992Z,16.42
2022-10-07T13:56:39.927Z,14.35
2022-10-07T13:59:08.529Z,14.88
2022-10-07T14:01:39.842Z,15.18
2022-10-07T14:04:16.200Z,11.40
2022-10-07T14:06:53.731Z,12.15
2022-10-07T14:09:31.432Z,13.32
2022-10-07T14:12:21.431Z,9.50
2022-10-07T14:14:50.891Z,10.60
2022-10-07T14:17:33.254Z,9.80
2022-10-07T14:20:05.912Z,11.18
2022-10-07T14:22:41.115Z,12.98
2022-10-07T14:25:27.611Z,11.93
2022-10-07T14:27:58.836Z,11.98
2022-10-07T14:30:58.050Z,13.25
2022-10-07T14:33:53.771Z,11.07
2022-10-07T14:36:21.953Z,12.75
2022-10-07T14:38:50.402Z,11.98
2022-10-07T14:41:18.986Z,13.18
2022-10-07T14:43:47.771Z,13.68
2022-10-07T14:46:22.751Z,12.95
2022-10-07T14:48:50.583Z,12.18
2022-10-07T14:51:20.039Z,12.63
2022-10-07T14:53:49.850Z,12.43
2022-10-07T14:56:26.140Z,13.15
2022-10-07T14:58:54.604Z,11.48
2022-10-07T15:01:22.343Z,12.98
2022-10-07T15:03:50.350Z,12.25
2022-10-07T15:06:18.489Z,14.15
2022-10-07T15:08:46.652Z,14.27
2022-10-07T15:11:15.449Z,14.40
2022-10-07T15:13:48.586Z,16.08
2022-10-07T15:16:17.335Z,15.55
2022-10-07T15:18:51.117Z,16.83
2022-10-07T15:21:20.542Z,15.88
2022-10-07T15:23:53.024Z,17.20
2022-10-07T15:26:24.437Z,17.95
2022-10-07T15:28:56.438Z,17.30
2022-10-07T15:31:28.133Z,16.95
2022-10-07T15:33:57.631Z,17.85
2022-10-07T15:36:25.889Z,15.35
2022-10-07T15:38:53.359Z,17.50
2022-10-07T15:41:50.259Z,15.50
2022-10-07T15:44:22.254Z,16.70
2022-10-07T15:46:53.633Z,16.90
2022-10-07T15:49:21.070Z,16.38
2022-10-07T15:51:48.473Z,16.08
2022-10-07T15:54:15.873Z,16.13
2022-10-07T15:56:45.199Z,17.20
2022-10-07T15:59:12.507Z,16.65
2022-10-07T16:01:39.875Z,18.08
2022-10-07T16:04:11.090Z,19.35
2022-10-07T16:06:38.800Z,17.95
2022-10-07T16:09:06.356Z,17.20
2022-10-07T16:11:33.832Z,16.77
2022-10-07T16:14:02.141Z,18.40
2022-10-07T16:16:31.410Z,19.15
2022-10-07T16:18:59.101Z,18.45
2022-10-07T16:21:29.084Z,18.90
2022-10-07T16:24:17.528Z,19.35
2022-10-07T16:26:45.121Z,19.63
2022-10-07T16:29:32.913Z,19.40
2022-10-07T16:32:00.336Z,18.60
2022-10-07T16:34:28.610Z,20.30
2022-10-07T16:36:56.410Z,19.95
2022-10-07T16:39:23.914Z,20.50
2022-10-07T16:41:52.275Z,20.27
2022-10-07T16:44:20.268Z,19.20
2022-10-07T16:46:48.111Z,21.70
2022-10-07T16:49:17.299Z,21.25
2022-10-07T16:51:45.105Z,21.17
2022-10-07T16:54:15.946Z,19.80
2022-10-07T16:56:47.008Z,22.48
2022-10-07T16:59:23.245Z,21.70
2022-10-07T17:01:52.645Z,22.42
2022-10-07T17:04:20.276Z,21.88
2022-10-07T17:06:47.743Z,21.48
2022-10-07T17:09:15.182Z,21.50
2022-10-07T17:11:42.719Z,21.77
2022-10-07T17:14:17.760Z,21.90
2022-10-07T17:16:49.870Z,21.90
2022-10-07T17:19:24.887Z,21.17
2022-10-07T17:21:52.927Z,20.85
2022-10-07T17:24:21.861Z,20.33
2022-10-07T17:26:49.440Z,20.95
2022-10-07T17:29:18.415Z,20.90
2022-10-07T17:31:48.234Z,20.80
2022-10-07T17:34:16.207Z,21.38
2022-10-07T17:36:46.089Z,23.65
2022-10-07T17:39:13.682Z,22.83
2022-10-07T17:41:41.307Z,21.63
2022-10-07T17:44:09.886Z,23.80
2022-10-07T17:46:39.197Z,22.35
2022-10-07T17:49:07.996Z,21.50
2022-10-07T17:51:37.027Z,23.23
2022-10-07T17:54:04.755Z,25.50
2022-10-07T17:56:32.261Z,23.88
2022-10-07T17:58:59.640Z,22.92
2022-10-07T18:01:28.823Z,21.20
2022-10-07T18:04:00.432Z,23.02
2022-10-07T18:06:29.289Z,26.48
2022-10-07T18:08:58.917Z,22.85
2022-10-07T18:11:46.509Z,23.80
2022-10-07T18:14:32.353Z,23.58
2022-10-07T18:16:59.773Z,24.65
2022-10-07T18:19:27.350Z,26.17
2022-10-07T18:21:56.356Z,26.25
2022-10-07T18:24:27.612Z,25.77
2022-10-07T18:26:58.999Z,23.98
2022-10-07T18:29:27.533Z,26.20
2022-10-07T18:31:54.987Z,23.38
2022-10-07T18:34:22.703Z,24.98
2022-10-07T18:36:55.182Z,25.77
2022-10-07T18:39:29.882Z,25.70
2022-10-07T18:41:58.334Z,26.17
2022-10-07T18:44:25.808Z,26.17
2022-10-07T18:46:53.413Z,24.83
2022-10-07T18:49:20.767Z,25.73
2022-10-07T18:51:50.467Z,21.90
2022-10-07T18:54:18.666Z,23.05
2022-10-07T18:56:49.373Z,23.98
2022-10-07T18:59:17.533Z,21.77
2022-10-07T19:01:49.815Z,21.30
2022-10-07T19:04:17.729Z,24.02
2022-10-07T19:06:46.009Z,21.08
2022-10-07T19:09:17.992Z,24.15
2022-10-07T19:11:45.407Z,23.40
2022-10-07T19:14:12.921Z,21.70
2022-10-07T19:16:44.938Z,20.52
2022-10-07T19:19:15.527Z,22.77
2022-10-07T19:21:46.381Z,22.23
2022-10-07T19:24:14.415Z,21.60
2022-10-07T19:26:43.805Z,22.23
2022-10-07T19:29:12.036Z,20.85
2022-10-07T19:31:44.091Z,20.65
2022-10-07T19:34:13.391Z,20.98
2022-10-07T19:36:42.374Z,22.17
2022-10-07T19:39:09.976Z,22.77
2022-10-07T19:41:37.524Z,24.92
2022-10-07T19:44:05.048Z,22.00
2022-10-07T19:46:33.448Z,21.95
2022-10-07T19:49:01.670Z,20.65
2022-10-07T19:51:30.359Z,21.40
2022-10-07T19:53:58.466Z,21.55
2022-10-07T19:56:30.342Z,24.13
2022-10-07T19:59:02.507Z,23.45
2022-10-07T20:01:32.190Z,21.83
2022-10-07T20:04:04.167Z,23.33
2022-10-07T20:06:31.647Z,22.92
2022-10-07T20:08:59.094Z,22.02
2022-10-07T20:11:27.810Z,24.77
2022-10-07T20:13:55.140Z,29.38
2022-10-07T20:16:24.289Z,26.38
2022-10-07T20:18:56.922Z,23.02
2022-10-07T20:21:24.228Z,25.70
2022-10-07T20:23:53.310Z,24.33
2022-10-07T20:26:27.171Z,26.45
2022-10-07T20:28:56.247Z,25.33
2022-10-07T20:31:26.454Z,26.20
2022-10-07T20:33:55.097Z,24.20
2022-10-07T20:36:28.203Z,24.60
2022-10-07T20:39:14.949Z,24.05
2022-10-07T20:42:07.226Z,25.70
2022-10-07T20:44:36.552Z,24.85
2022-10-07T20:47:07.958Z,29.05
2022-10-07T20:49:37.240Z,25.50
2022-10-07T20:52:06.079Z,26.30
2022-10-07T20:54:33.550Z,23.83
2022-10-07T20:57:01.393Z,24.15
2022-10-07T20:59:29.987Z,25.80
2022-10-07T21:01:57.693Z,24.02
2022-10-07T21:04:27.045Z,23.70
2022-10-07T21:06:56.410Z,23.08
2022-10-07T21:09:24.361Z,24.42
2022-10-07T21:11:52.023Z,24.52
2022-10-07T21:14:19.335Z,25.83
2022-10-07T21:16:47.282Z,23.63
2022-10-07T21:19:14.998Z,26.33
2022-10-07T21:21:42.267Z,25.38
2022-10-07T21:24:09.603Z,25.45
2022-10-07T21:26:37.040Z,25.50
2022-10-07T21:29:05.100Z,23.77
2022-10-07T21:31:32.570Z,25.10
2022-10-07T21:34:01.639Z,23.30
2022-10-07T21:36:29.073Z,23.98
2022-10-07T21:38:58.576Z,23.13
2022-10-07T21:41:27.363Z,23.75
2022-10-07T21:43:55.611Z,21.60
2022-10-07T21:46:23.743Z,22.38
2022-10-07T21:48:52.011Z,22.65
2022-10-07T21:51:19.301Z,22.58
2022-10-07T21:53:58.165Z,23.90
2022-10-07T21:56:26.550Z,22.88
2022-10-07T21:58:53.900Z,21.55
2022-10-07T22:01:22.620Z,22.65
2022-10-07T22:03:57.728Z,20.75
2022-10-07T22:06:45.124Z,21.17
2022-10-07T22:09:12.888Z,20.83
2022-10-07T22:11:40.357Z,20.73
2022-10-07T22:14:12.072Z,21.05
2022-10-07T22:16:40.139Z,19.90
2022-10-07T22:19:07.431Z,20.90
2022-10-07T22:21:39.943Z,20.08
2022-10-07T22:24:07.822Z,20.00
2022-10-07T22:26:44.315Z,18.65
2022-10-07T22:29:13.482Z,20.80
2022-10-07T22:31:40.766Z,19.20
2022-10-07T22:34:08.171Z,19.10
2022-10-07T22:36:36.853Z,17.85
2022-10-07T22:39:04.434Z,17.92
2022-10-07T22:41:32.289Z,17.20
2022-10-07T22:43:59.970Z,16.13
2022-10-07T22:46:27.927Z,16.40
2022-10-07T22:48:56.523Z,16.48
2022-10-07T22:51:24.397Z,16.77
2022-10-07T22:53:55.094Z,16.70
2022-10-07T22:56:23.485Z,16.73
2022-10-07T22:58:53.135Z,16.15
2022-10-07T23:01:20.659Z,16.17
2022-10-07T23:03:48.201Z,16.25
2022-10-07T23:06:17.521Z,16.67
2022-10-07T23:08:45.091Z,16.63
2022-10-07T23:11:20.558Z,17.52
2022-10-07T23:13:48.072Z,17.60
2022-10-07T23:16:17.842Z,16.92
2022-10-07T23:18:45.961Z,16.73
2022-10-07T23:21:15.185Z,17.80
2022-10-07T23:23:44.010Z,17.92
2022-10-07T23:26:12.895Z,17.98
2022-10-07T23:28:40.436Z,16.77
2022-10-07T23:31:12.035Z,17.20
2022-10-07T23:33:39.431Z,16.77
2022-10-07T23:36:10.316Z,16.77
2022-10-07T23:38:44.551Z,17.23
2022-10-07T23:41:13.178Z,18.02
2022-10-07T23:43:40.730Z,18.13
2022-10-07T23:46:10.542Z,18.23
2022-10-07T23:48:37.912Z,18.30
2022-10-07T23:51:05.922Z,17.83
2022-10-07T23:53:33.962Z,18.45
2022-10-07T23:56:01.506Z,17.85
2022-10-07T23:58:29.633Z,17.83
